Time;durP1;ratioP1;P1;durP2;ratioP2;P2;SDS_P1;SDS_P2;PMS_P1;PMS_P2;Temp;Humidity;BMP_temperature;BMP_pressure;BME280_temperature;BME280_humidity;BME280_pressure;Samples;Min_cycle;Max_cycle;Signal;HPM_P1;HPM_P2
2021/10/19 00:00:50;;;;;;;0.65;0.65;;;0.50;99.90;;;;;;5030114;28;20720;-68
2021/10/19 00:03:16;;;;;;;0.80;0.80;;;0.50;99.90;;;;;;5035356;28;20260;-68
2021/10/19 00:05:41;;;;;;;0.70;0.70;;;0.60;99.90;;;;;;5032024;28;20657;-70
2021/10/19 00:08:07;;;;;;;0.70;0.70;;;0.60;99.90;;;;;;5032846;28;20217;-69
2021/10/19 00:10:33;;;;;;;0.63;0.63;;;0.60;99.90;;;;;;5051152;28;20217;-68
2021/10/19 00:12:59;;;;;;;0.70;0.70;;;0.60;99.90;;;;;;5050663;28;20600;-68
2021/10/19 00:15:26;;;;;;;0.80;0.80;;;0.70;99.90;;;;;;5032143;28;20217;-67
2021/10/19 00:17:51;;;;;;;1.13;1.10;;;0.70;99.90;;;;;;5050886;28;20672;-68
2021/10/19 00:20:17;;;;;;;2.25;1.50;;;0.70;99.90;;;;;;5049992;28;20277;-68
2021/10/19 00:22:43;;;;;;;0.77;0.77;;;0.70;99.90;;;;;;5047466;28;20217;-68
2021/10/19 00:25:14;;;;;;;0.60;0.60;;;0.70;99.90;;;;;;5051333;28;20233;-68
2021/10/19 00:27:40;;;;;;;0.77;0.77;;;0.70;99.90;;;;;;5049741;28;20664;-67
2021/10/19 00:30:09;;;;;;;1.13;1.10;;;0.70;99.90;;;;;;5021181;28;20290;-70
2021/10/19 00:32:35;;;;;;;0.80;0.80;;;0.70;99.90;;;;;;5030735;28;20691;-68
2021/10/19 00:35:01;;;;;;;0.80;0.80;;;0.70;99.90;;;;;;5048867;28;20268;-69
2021/10/19 00:37:27;;;;;;;0.65;0.65;;;0.70;99.90;;;;;;5048584;28;20683;-69
2021/10/19 00:39:53;;;;;;;0.73;0.73;;;0.80;99.90;;;;;;5031884;28;20201;-68
2021/10/19 00:42:18;;;;;;;0.63;0.63;;;0.80;99.90;;;;;;5030740;28;20201;-68
2021/10/19 00:44:44;;;;;;;0.70;0.70;;;0.80;99.90;;;;;;5050955;28;20271;-69
2021/10/19 00:47:10;;;;;;;0.60;0.60;;;0.80;99.90;;;;;;5048465;28;20628;-68
2021/10/19 00:49:36;;;;;;;0.80;0.80;;;0.90;99.90;;;;;;5031575;28;20251;-68
2021/10/19 00:52:03;;;;;;;0.70;0.70;;;0.90;99.90;;;;;;5050792;28;20201;-70
2021/10/19 00:54:29;;;;;;;0.70;0.70;;;0.90;99.90;;;;;;5049249;28;20205;-70
2021/10/19 00:56:55;;;;;;;0.65;0.65;;;0.90;99.90;;;;;;5050406;28;20661;-69
2021/10/19 00:59:21;;;;;;;1.42;1.35;;;0.90;99.90;;;;;;5033086;28;20343;-70
2021/10/19 01:01:48;;;;;;;1.15;1.08;;;1.00;99.90;;;;;;5050087;28;20558;-72
2021/10/19 01:04:14;;;;;;;0.80;0.80;;;1.00;99.90;;;;;;5043251;23;20724;-72
2021/10/19 01:06:40;;;;;;;0.77;0.77;;;1.00;99.90;;;;;;5031223;28;20243;-72
2021/10/19 01:09:08;;;;;;;0.70;0.70;;;1.10;99.90;;;;;;5031087;28;20210;-73
2021/10/19 01:11:33;;;;;;;0.65;0.65;;;1.00;99.90;;;;;;5031252;28;20213;-73
2021/10/19 01:13:59;;;;;;;0.70;0.70;;;1.10;99.90;;;;;;5031380;28;20205;-69
2021/10/19 01:16:25;;;;;;;0.70;0.70;;;1.10;99.90;;;;;;5029948;28;20580;-72
2021/10/19 01:18:50;;;;;;;0.80;0.80;;;1.10;99.90;;;;;;5010954;28;20616;-72
2021/10/19 01:21:16;;;;;;;0.60;0.60;;;1.10;99.90;;;;;;5031314;28;20214;-73
2021/10/19 01:23:42;;;;;;;0.75;0.75;;;1.10;99.90;;;;;;5031181;28;20202;-72
2021/10/19 01:26:09;;;;;;;0.60;0.60;;;1.10;99.90;;;;;;5029940;28;20202;-71
2021/10/19 01:28:37;;;;;;;0.80;0.80;;;1.10;99.90;;;;;;5029717;28;20237;-72
2021/10/19 01:31:05;;;;;;;0.70;0.70;;;1.10;99.90;;;;;;5034250;28;20202;-71
2021/10/19 01:33:31;;;;;;;0.80;0.80;;;1.10;99.90;;;;;;5033460;28;20221;-72
2021/10/19 01:35:57;;;;;;;0.70;0.70;;;1.10;99.90;;;;;;5033479;28;20194;-72
2021/10/19 01:38:25;;;;;;;0.73;0.73;;;1.10;99.90;;;;;;5034454;28;20634;-72
2021/10/19 01:40:52;;;;;;;1.00;1.00;;;1.10;99.90;;;;;;5034955;28;20218;-72
2021/10/19 01:43:21;;;;;;;0.80;0.80;;;1.10;99.90;;;;;;5015459;28;20289;-71
2021/10/19 01:45:51;;;;;;;0.70;0.70;;;1.10;99.90;;;;;;5034758;28;20715;-72
2021/10/19 01:48:18;;;;;;;0.57;0.57;;;1.10;99.90;;;;;;5033247;28;20209;-72
2021/10/19 01:50:44;;;;;;;0.70;0.70;;;1.20;99.90;;;;;;5015635;28;20202;-72
2021/10/19 01:53:10;;;;;;;0.90;0.90;;;1.20;99.90;;;;;;5016760;28;20233;-72
2021/10/19 01:55:37;;;;;;;0.70;0.70;;;1.20;99.90;;;;;;5034658;28;20229;-72
2021/10/19 01:58:04;;;;;;;0.73;0.73;;;1.20;99.90;;;;;;5033642;28;20282;-73
2021/10/19 02:00:30;;;;;;;0.70;0.70;;;1.20;99.90;;;;;;5031674;28;20206;-74
2021/10/19 02:02:56;;;;;;;0.90;0.90;;;1.20;99.90;;;;;;5033783;28;20677;-73
2021/10/19 02:05:21;;;;;;;0.82;0.82;;;1.20;99.90;;;;;;5046488;28;20235;-73
2021/10/19 02:07:47;;;;;;;0.60;0.60;;;1.20;99.90;;;;;;5054061;28;20294;-72
2021/10/19 02:10:13;;;;;;;0.80;0.80;;;1.20;99.90;;;;;;5038628;28;20252;-73
2021/10/19 02:12:39;;;;;;;0.60;0.60;;;1.30;99.90;;;;;;5035179;28;20210;-72
2021/10/19 02:15:07;;;;;;;0.70;0.70;;;1.30;99.90;;;;;;5048629;28;20648;-73
2021/10/19 02:17:33;;;;;;;0.70;0.70;;;1.30;99.90;;;;;;5052563;28;20628;-72
2021/10/19 02:20:01;;;;;;;0.80;0.80;;;1.30;99.90;;;;;;5035756;28;20202;-73
2021/10/19 02:22:28;;;;;;;0.60;0.60;;;1.30;99.90;;;;;;5053639;28;20219;-73
2021/10/19 02:24:55;;;;;;;0.70;0.70;;;1.30;99.90;;;;;;5027777;28;20210;-72
2021/10/19 02:27:20;;;;;;;0.60;0.60;;;1.30;99.90;;;;;;5043304;28;20209;-73
2021/10/19 02:29:46;;;;;;;0.70;0.70;;;1.40;99.90;;;;;;5052548;28;20198;-73
2021/10/19 02:32:12;;;;;;;0.80;0.80;;;1.40;99.90;;;;;;5047571;28;20194;-73
2021/10/19 02:34:37;;;;;;;0.60;0.60;;;1.40;99.90;;;;;;5038685;28;20255;-72
2021/10/19 02:37:04;;;;;;;0.60;0.60;;;1.40;99.90;;;;;;5032267;28;20315;-72
2021/10/19 02:39:29;;;;;;;0.80;0.80;;;1.40;99.90;;;;;;5052306;28;20575;-72
2021/10/19 02:41:55;;;;;;;0.70;0.70;;;1.50;99.90;;;;;;5052067;28;20209;-72
2021/10/19 02:44:21;;;;;;;0.70;0.70;;;1.50;99.90;;;;;;5051933;28;20194;-72
2021/10/19 02:46:46;;;;;;;0.70;0.70;;;1.50;99.90;;;;;;5053573;28;20233;-73
2021/10/19 02:49:12;;;;;;;0.70;0.70;;;1.50;99.90;;;;;;5052768;28;20565;-73
2021/10/19 02:51:38;;;;;;;0.60;0.60;;;1.50;99.90;;;;;;5049492;28;20205;-73
2021/10/19 02:54:03;;;;;;;0.60;0.60;;;1.60;99.90;;;;;;5052005;28;20205;-72
2021/10/19 02:56:29;;;;;;;0.65;0.65;;;1.60;99.90;;;;;;5035737;28;20292;-72
2021/10/19 02:58:55;;;;;;;0.60;0.60;;;1.60;99.90;;;;;;5048311;28;20526;-73
2021/10/19 03:01:20;;;;;;;2.08;1.40;;;1.60;99.90;;;;;;5033275;28;20217;-73
2021/10/19 03:03:46;;;;;;;0.93;0.93;;;1.60;99.90;;;;;;5051762;28;20210;-72
2021/10/19 03:06:12;;;;;;;0.63;0.63;;;1.60;99.90;;;;;;5050703;28;20300;-72
2021/10/19 03:08:37;;;;;;;0.70;0.70;;;1.70;99.90;;;;;;5051538;28;20629;-72
2021/10/19 03:11:04;;;;;;;0.70;0.70;;;1.70;99.90;;;;;;5051552;28;20553;-73
2021/10/19 03:13:29;;;;;;;0.80;0.80;;;1.70;99.90;;;;;;5050276;28;20259;-73
2021/10/19 03:15:56;;;;;;;0.50;0.50;;;1.70;99.90;;;;;;5051450;28;20201;-73
2021/10/19 03:18:23;;;;;;;0.70;0.70;;;1.70;99.90;;;;;;5051508;28;20201;-73
2021/10/19 03:20:48;;;;;;;0.70;0.70;;;1.70;99.90;;;;;;5052655;28;20202;-74
2021/10/19 03:23:16;;;;;;;0.65;0.65;;;1.70;99.90;;;;;;5034904;28;20208;-72
2021/10/19 03:25:41;;;;;;;2.65;1.45;;;1.70;99.90;;;;;;5034839;28;20205;-73
2021/10/19 03:28:07;;;;;;;0.52;0.52;;;1.80;99.90;;;;;;5050208;28;20263;-72
2021/10/19 03:30:33;;;;;;;0.75;0.75;;;1.80;99.90;;;;;;5052639;28;20198;-73
2021/10/19 03:32:59;;;;;;;0.65;0.65;;;1.80;99.90;;;;;;5051370;28;20186;-72
2021/10/19 03:35:26;;;;;;;0.70;0.70;;;1.80;99.90;;;;;;5032838;28;20267;-73
2021/10/19 03:37:53;;;;;;;0.70;0.70;;;1.80;99.90;;;;;;5051638;28;20292;-73
2021/10/19 03:40:19;;;;;;;0.80;0.80;;;1.90;99.90;;;;;;5051629;28;20262;-73
2021/10/19 03:42:47;;;;;;;0.70;0.70;;;1.90;99.90;;;;;;5052196;28;20280;-73
2021/10/19 03:45:14;;;;;;;0.77;0.77;;;1.90;99.90;;;;;;5032967;28;20668;-73
2021/10/19 03:47:40;;;;;;;0.75;0.75;;;1.90;99.90;;;;;;5034189;28;21314;-73
2021/10/19 03:50:06;;;;;;;0.70;0.70;;;1.90;99.90;;;;;;5038103;28;20198;-73
2021/10/19 03:52:32;;;;;;;0.70;0.70;;;1.90;99.90;;;;;;5031317;28;20202;-73
2021/10/19 03:54:58;;;;;;;0.65;0.65;;;1.90;99.90;;;;;;5049688;28;20197;-73
2021/10/19 03:57:23;;;;;;;0.70;0.70;;;1.90;99.90;;;;;;5050590;28;20205;-73
2021/10/19 03:59:49;;;;;;;0.70;0.70;;;1.90;99.90;;;;;;5032699;28;20206;-74
2021/10/19 04:02:14;;;;;;;0.80;0.80;;;2.00;99.90;;;;;;5042499;28;20202;-73
2021/10/19 04:04:40;;;;;;;0.75;0.75;;;2.00;99.90;;;;;;5040947;28;20237;-73
2021/10/19 04:07:06;;;;;;;0.65;0.65;;;2.00;99.90;;;;;;5032624;28;20688;-73
2021/10/19 04:09:32;;;;;;;0.68;0.68;;;2.00;99.90;;;;;;5050488;28;20201;-73
2021/10/19 04:11:58;;;;;;;0.75;0.75;;;2.00;99.90;;;;;;5047443;28;20198;-73
2021/10/19 04:14:23;;;;;;;0.60;0.60;;;2.00;99.90;;;;;;5033846;28;20227;-73
2021/10/19 04:16:49;;;;;;;0.52;0.52;;;2.00;99.90;;;;;;5049577;28;20280;-73
2021/10/19 04:19:15;;;;;;;0.50;0.50;;;2.00;99.90;;;;;;5034139;28;20567;-72
2021/10/19 04:21:45;;;;;;;0.60;0.60;;;2.00;99.90;;;;;;5050334;28;20200;-73
2021/10/19 04:24:11;;;;;;;1.10;0.75;;;2.00;99.90;;;;;;5033037;28;20751;-73
2021/10/19 04:26:37;;;;;;;0.75;0.75;;;2.00;99.90;;;;;;5032442;28;20197;-73
2021/10/19 04:29:03;;;;;;;0.50;0.50;;;2.00;99.90;;;;;;5051775;28;20213;-73
2021/10/19 04:31:31;;;;;;;0.60;0.60;;;2.00;99.90;;;;;;5050678;28;20280;-73
2021/10/19 04:33:59;;;;;;;0.70;0.70;;;2.00;99.90;;;;;;5052055;28;20205;-73
2021/10/19 04:36:25;;;;;;;0.70;0.70;;;2.10;99.90;;;;;;5050307;28;20221;-74
2021/10/19 04:38:51;;;;;;;0.60;0.60;;;2.10;99.90;;;;;;5050167;28;20209;-73
2021/10/19 04:41:17;;;;;;;0.70;0.70;;;2.10;99.90;;;;;;5038078;28;20221;-73
2021/10/19 04:43:42;;;;;;;1.35;1.05;;;2.10;99.90;;;;;;5047337;28;20212;-73
2021/10/19 04:46:08;;;;;;;0.60;0.60;;;2.10;99.90;;;;;;5050317;28;20205;-73
2021/10/19 04:48:34;;;;;;;0.50;0.50;;;2.20;99.90;;;;;;5050189;28;20213;-72
2021/10/19 04:50:59;;;;;;;1.13;1.10;;;2.20;99.90;;;;;;5048867;28;20207;-72
2021/10/19 04:53:25;;;;;;;0.65;0.65;;;2.20;99.90;;;;;;5048839;28;20205;-72
2021/10/19 04:55:51;;;;;;;0.70;0.70;;;2.20;99.90;;;;;;5031986;28;20201;-72
2021/10/19 04:58:16;;;;;;;0.70;0.70;;;2.20;99.90;;;;;;5051382;28;20209;-72
2021/10/19 05:00:43;;;;;;;0.60;0.60;;;2.20;99.90;;;;;;5031969;28;20564;-72
2021/10/19 05:03:09;;;;;;;0.77;0.77;;;2.20;99.90;;;;;;5044968;28;20208;-73
2021/10/19 05:05:35;;;;;;;0.93;0.93;;;2.20;99.90;;;;;;5049793;28;20702;-72
2021/10/19 05:08:01;;;;;;;0.60;0.60;;;2.30;99.90;;;;;;5039982;28;20259;-73
2021/10/19 05:10:26;;;;;;;0.90;0.90;;;2.30;99.90;;;;;;5052628;28;20208;-73
2021/10/19 05:12:52;;;;;;;0.60;0.60;;;2.30;99.90;;;;;;5055391;28;20607;-73
2021/10/19 05:15:18;;;;;;;0.70;0.70;;;2.40;99.90;;;;;;5037744;28;20197;-72
2021/10/19 05:17:44;;;;;;;0.70;0.70;;;2.40;99.90;;;;;;5053067;28;20205;-72
2021/10/19 05:20:10;;;;;;;0.52;0.52;;;2.40;99.90;;;;;;5035981;28;20201;-73
2021/10/19 05:22:36;;;;;;;0.60;0.60;;;2.40;99.90;;;;;;5037389;28;20214;-72
2021/10/19 05:25:03;;;;;;;0.70;0.70;;;2.40;99.90;;;;;;5052904;28;20209;-71
2021/10/19 05:27:28;;;;;;;0.60;0.60;;;2.50;99.90;;;;;;5053368;28;20213;-72
2021/10/19 05:29:54;;;;;;;0.70;0.70;;;2.50;99.90;;;;;;5041491;28;20248;-71
2021/10/19 05:32:20;;;;;;;0.60;0.60;;;2.50;99.90;;;;;;5049388;28;20742;-71
2021/10/19 05:34:45;;;;;;;0.60;0.60;;;2.50;99.90;;;;;;5036850;28;20304;-73
2021/10/19 05:37:11;;;;;;;0.63;0.63;;;2.50;99.90;;;;;;5052311;28;20206;-71
2021/10/19 05:39:37;;;;;;;0.57;0.57;;;2.50;99.90;;;;;;5036594;28;20615;-72
2021/10/19 05:42:04;;;;;;;0.80;0.80;;;2.50;99.90;;;;;;5042723;28;20225;-72
2021/10/19 05:44:30;;;;;;;0.70;0.70;;;2.60;99.90;;;;;;5052908;28;20228;-71
2021/10/19 05:46:55;;;;;;;0.60;0.60;;;2.60;99.90;;;;;;5049532;28;20661;-71
2021/10/19 05:49:21;;;;;;;7.53;2.75;;;2.50;99.90;;;;;;5048247;28;20233;-72
2021/10/19 05:51:48;;;;;;;0.55;0.55;;;2.50;99.90;;;;;;5036350;28;20197;-71
2021/10/19 05:54:15;;;;;;;0.70;0.70;;;2.50;99.90;;;;;;5054223;28;20220;-73
2021/10/19 05:56:41;;;;;;;0.63;0.63;;;2.50;99.90;;;;;;5052808;28;20549;-71
2021/10/19 05:59:07;;;;;;;0.85;0.85;;;2.50;99.90;;;;;;5053123;28;20205;-71
2021/10/19 06:01:33;;;;;;;0.52;0.52;;;2.50;99.90;;;;;;5035935;28;20263;-71
2021/10/19 06:03:58;;;;;;;0.60;0.60;;;2.40;99.90;;;;;;5054002;28;20339;-71
2021/10/19 06:06:24;;;;;;;0.60;0.60;;;2.40;99.90;;;;;;5052636;28;20217;-71
2021/10/19 06:08:51;;;;;;;0.60;0.60;;;2.40;99.90;;;;;;5035524;28;20221;-71
2021/10/19 06:11:18;;;;;;;0.60;0.60;;;2.40;99.90;;;;;;5036576;28;20572;-72
2021/10/19 06:13:44;;;;;;;0.80;0.80;;;2.40;99.90;;;;;;5052789;28;20270;-73
2021/10/19 06:16:10;;;;;;;0.70;0.70;;;2.40;99.90;;;;;;5052518;28;20189;-71
2021/10/19 06:18:36;;;;;;;0.77;0.77;;;2.40;99.90;;;;;;5034746;28;20292;-72
2021/10/19 06:21:01;;;;;;;0.60;0.60;;;2.50;99.90;;;;;;5051794;28;20272;-72
2021/10/19 06:23:28;;;;;;;0.73;0.73;;;2.40;99.90;;;;;;5035744;28;20627;-72
2021/10/19 06:25:53;;;;;;;0.55;0.55;;;2.40;99.90;;;;;;5043264;28;20654;-71
2021/10/19 06:28:19;;;;;;;0.80;0.80;;;2.40;99.90;;;;;;5034316;28;20209;-72
2021/10/19 06:30:45;;;;;;;0.70;0.70;;;2.40;99.90;;;;;;5051364;28;20252;-72
2021/10/19 06:33:11;;;;;;;1.10;1.00;;;2.50;99.90;;;;;;5035663;28;20676;-72
2021/10/19 06:35:37;;;;;;;0.60;0.60;;;2.50;99.90;;;;;;5030302;28;20198;-71
2021/10/19 06:38:02;;;;;;;0.70;0.70;;;2.50;99.90;;;;;;5039796;28;20676;-71
2021/10/19 06:40:28;;;;;;;0.70;0.70;;;2.50;99.90;;;;;;5034048;28;20236;-71
2021/10/19 06:42:54;;;;;;;0.60;0.60;;;2.50;99.90;;;;;;5053569;28;20209;-71
2021/10/19 06:45:19;;;;;;;11.40;2.92;;;2.60;99.90;;;;;;5050846;28;20205;-71
2021/10/19 06:47:45;;;;;;;0.80;0.80;;;2.50;99.90;;;;;;5052334;28;20241;-72
2021/10/19 06:50:11;;;;;;;1.15;1.08;;;2.50;99.90;;;;;;5051971;28;20234;-72
2021/10/19 06:52:37;;;;;;;0.60;0.60;;;2.50;99.90;;;;;;5034829;28;20201;-72
2021/10/19 06:55:07;;;;;;;2.70;1.00;;;2.50;99.90;;;;;;5051681;28;20548;-72
2021/10/19 06:57:42;;;;;;;0.70;0.70;;;2.60;99.90;;;;;;5051117;28;20206;-72
2021/10/19 07:00:10;;;;;;;0.57;0.57;;;2.60;99.90;;;;;;5051372;28;20209;-73
2021/10/19 07:02:36;;;;;;;0.50;0.50;;;2.60;99.90;;;;;;5050055;28;20789;-72
2021/10/19 07:05:02;;;;;;;0.60;0.60;;;2.60;99.90;;;;;;5052932;28;20312;-72
2021/10/19 07:07:27;;;;;;;0.70;0.70;;;2.70;99.90;;;;;;5033469;28;20201;-73
2021/10/19 07:09:53;;;;;;;0.70;0.70;;;2.70;99.90;;;;;;5039264;28;20205;-73
2021/10/19 07:12:18;;;;;;;0.68;0.68;;;2.70;99.90;;;;;;5046672;28;20208;-73
2021/10/19 07:14:44;;;;;;;0.50;0.50;;;2.80;99.90;;;;;;5035032;28;20221;-73
2021/10/19 07:17:10;;;;;;;0.70;0.70;;;2.80;99.90;;;;;;5050393;28;20197;-72
2021/10/19 07:19:38;;;;;;;0.50;0.50;;;2.80;99.90;;;;;;5051626;28;20205;-73
2021/10/19 07:22:04;;;;;;;0.63;0.63;;;2.90;99.90;;;;;;5033422;28;20291;-71
2021/10/19 07:24:30;;;;;;;0.57;0.57;;;2.90;99.90;;;;;;5051333;28;20286;-73
2021/10/19 07:26:55;;;;;;;0.65;0.65;;;3.00;99.90;;;;;;5049629;28;20201;-72
2021/10/19 07:29:21;;;;;;;0.60;0.60;;;3.00;99.90;;;;;;5046641;28;20212;-72
2021/10/19 07:31:46;;;;;;;0.70;0.70;;;3.00;99.90;;;;;;5034702;28;20284;-73
2021/10/19 07:34:12;;;;;;;0.60;0.60;;;3.00;99.90;;;;;;5051497;28;20205;-73
2021/10/19 07:36:38;;;;;;;0.60;0.60;;;3.00;99.90;;;;;;5051041;28;20708;-72
2021/10/19 07:39:04;;;;;;;0.60;0.60;;;3.10;99.90;;;;;;5051294;28;20284;-73
2021/10/19 07:41:30;;;;;;;0.60;0.60;;;3.10;99.90;;;;;;5034792;28;20197;-74
2021/10/19 07:43:56;;;;;;;0.52;0.52;;;3.20;99.90;;;;;;5051035;28;20648;-73
2021/10/19 07:46:21;;;;;;;0.60;0.60;;;3.30;99.90;;;;;;5034119;28;20205;-74
2021/10/19 07:48:47;;;;;;;0.55;0.55;;;3.40;99.90;;;;;;5052246;28;20580;-73
2021/10/19 07:51:13;;;;;;;0.80;0.80;;;3.50;99.90;;;;;;5046551;28;20292;-73
2021/10/19 07:53:38;;;;;;;0.60;0.60;;;3.50;99.90;;;;;;5051177;28;20248;-75
2021/10/19 07:56:04;;;;;;;0.60;0.60;;;3.50;99.90;;;;;;5049622;28;20205;-75
2021/10/19 07:58:30;;;;;;;0.60;0.60;;;3.50;99.90;;;;;;5035045;28;20213;-74
2021/10/19 08:00:56;;;;;;;0.70;0.70;;;3.50;99.90;;;;;;5048978;28;20212;-72
2021/10/19 08:03:21;;;;;;;0.60;0.60;;;3.60;99.90;;;;;;5035925;28;20217;-74
2021/10/19 08:05:47;;;;;;;0.50;0.50;;;3.70;99.90;;;;;;5035035;28;20225;-73
2021/10/19 08:08:14;;;;;;;0.80;0.80;;;3.70;99.90;;;;;;5033938;28;20286;-74
2021/10/19 08:10:42;;;;;;;1.48;0.70;;;3.80;99.90;;;;;;5032393;28;20668;-73
2021/10/19 08:13:09;;;;;;;0.60;0.60;;;3.80;99.90;;;;;;5033920;28;20201;-73
2021/10/19 08:15:35;;;;;;;0.60;0.60;;;3.80;99.90;;;;;;5033734;28;20206;-74
2021/10/19 08:18:02;;;;;;;0.80;0.80;;;3.80;99.90;;;;;;5050427;28;20204;-74
2021/10/19 08:20:28;;;;;;;0.80;0.80;;;3.80;99.90;;;;;;5051372;28;20263;-73
2021/10/19 08:22:54;;;;;;;1.02;0.95;;;3.90;99.90;;;;;;5051494;28;20205;-73
2021/10/19 08:25:19;;;;;;;0.70;0.70;;;3.90;99.90;;;;;;5034548;28;20201;-73
2021/10/19 08:27:46;;;;;;;0.60;0.60;;;3.90;99.90;;;;;;5051373;28;20644;-74
2021/10/19 08:30:15;;;;;;;0.70;0.70;;;3.90;99.90;;;;;;5050319;28;20201;-73
2021/10/19 08:32:42;;;;;;;0.60;0.60;;;3.90;99.90;;;;;;5033194;28;20201;-73
2021/10/19 08:35:08;;;;;;;0.65;0.65;;;3.80;99.90;;;;;;5034457;28;20194;-74
2021/10/19 08:37:34;;;;;;;0.52;0.52;;;3.70;99.90;;;;;;5051479;28;20280;-74
2021/10/19 08:40:00;;;;;;;0.55;0.55;;;3.80;99.90;;;;;;5032440;28;20266;-73
2021/10/19 08:42:27;;;;;;;0.60;0.60;;;3.70;99.90;;;;;;5051388;28;20206;-77
2021/10/19 08:44:53;;;;;;;0.95;0.95;;;3.70;99.90;;;;;;5050772;28;20595;-76
2021/10/19 08:47:20;;;;;;;0.70;0.70;;;3.80;99.90;;;;;;5049913;28;20202;-74
2021/10/19 08:49:46;;;;;;;0.50;0.50;;;3.80;99.90;;;;;;5032467;28;20205;-74
2021/10/19 08:52:11;;;;;;;0.55;0.55;;;3.80;99.90;;;;;;5050076;28;20284;-74
2021/10/19 08:54:37;;;;;;;0.40;0.40;;;3.80;99.90;;;;;;5033236;28;20627;-74
2021/10/19 08:57:15;;;;;;;0.60;0.60;;;3.70;99.90;;;;;;5050038;28;20205;-75
2021/10/19 08:59:46;;;;;;;0.50;0.50;;;3.70;99.90;;;;;;5050788;28;20197;-73
2021/10/19 09:02:12;;;;;;;0.50;0.50;;;3.70;99.90;;;;;;5052013;28;20198;-73
2021/10/19 09:04:38;;;;;;;0.60;0.60;;;3.70;99.90;;;;;;5050771;28;20243;-74
2021/10/19 09:07:05;;;;;;;0.60;0.60;;;3.70;99.90;;;;;;5048853;28;20197;-74
2021/10/19 09:09:32;;;;;;;0.70;0.70;;;3.60;99.90;;;;;;5049855;28;20557;-74
2021/10/19 09:11:57;;;;;;;0.73;0.73;;;3.60;99.90;;;;;;5051454;28;20215;-74
2021/10/19 09:14:34;;;;;;;0.60;0.60;;;3.70;99.90;;;;;;5051086;28;20197;-74
2021/10/19 09:17:01;;;;;;;0.70;0.70;;;3.70;99.90;;;;;;5050168;28;20201;-74
2021/10/19 09:19:28;;;;;;;0.50;0.50;;;3.70;99.90;;;;;;5049697;28;20274;-73
2021/10/19 09:21:56;;;;;;;0.60;0.60;;;3.70;99.90;;;;;;5044025;28;20197;-73
2021/10/19 09:24:29;;;;;;;0.55;0.55;;;3.70;99.90;;;;;;5038552;28;20209;-73
2021/10/19 09:26:58;;;;;;;0.60;0.60;;;3.70;99.90;;;;;;5051194;28;20198;-74
2021/10/19 09:29:26;;;;;;;0.60;0.60;;;3.80;99.90;;;;;;5032928;28;20235;-73
2021/10/19 09:31:57;;;;;;;0.75;0.75;;;3.80;99.90;;;;;;5049744;28;20202;-73
2021/10/19 09:34:26;;;;;;;0.70;0.70;;;3.90;99.90;;;;;;5050669;28;20255;-71
2021/10/19 09:36:52;;;;;;;0.50;0.50;;;3.90;99.90;;;;;;5031753;28;20208;-72
2021/10/19 09:39:29;;;;;;;0.60;0.60;;;3.90;99.90;;;;;;5051010;28;20237;-72
2021/10/19 09:41:55;;;;;;;0.70;0.70;;;3.90;99.90;;;;;;5050094;28;20214;-72
2021/10/19 09:44:21;;;;;;;9.20;1.98;;;3.90;99.90;;;;;;5032809;28;20208;-74
2021/10/19 09:46:47;;;;;;;0.60;0.60;;;3.80;99.90;;;;;;5050533;28;20200;-73
2021/10/19 09:49:14;;;;;;;0.50;0.50;;;3.70;99.90;;;;;;5049175;28;20308;-72
2021/10/19 09:51:40;;;;;;;0.57;0.57;;;3.70;99.90;;;;;;5052214;28;20288;-71
2021/10/19 09:54:09;;;;;;;0.50;0.50;;;3.80;99.90;;;;;;5054601;28;20197;-73
2021/10/19 09:56:39;;;;;;;0.50;0.50;;;3.80;99.90;;;;;;5036298;28;20199;-71
2021/10/19 09:59:06;;;;;;;0.63;0.63;;;3.80;99.90;;;;;;5052059;28;20206;-73
2021/10/19 10:01:33;;;;;;;0.80;0.80;;;3.80;99.90;;;;;;5052823;28;20198;-74
2021/10/19 10:04:00;;;;;;;0.63;0.63;;;3.70;99.90;;;;;;5052983;28;20251;-72
2021/10/19 10:06:30;;;;;;;0.68;0.68;;;3.80;99.90;;;;;;5052957;28;20251;-72
2021/10/19 10:09:00;;;;;;;1.38;1.27;;;3.80;99.90;;;;;;5023403;28;20210;-73
2021/10/19 10:11:26;;;;;;;0.45;0.45;;;3.70;99.90;;;;;;5048756;28;20672;-73
2021/10/19 10:14:03;;;;;;;0.50;0.50;;;3.80;99.90;;;;;;5042898;28;20205;-73
2021/10/19 10:16:29;;;;;;;0.50;0.50;;;3.80;99.90;;;;;;5047885;28;20700;-73
2021/10/19 10:18:56;;;;;;;0.90;0.90;;;3.80;99.90;;;;;;5042377;28;20677;-73
2021/10/19 10:21:27;;;;;;;0.60;0.60;;;3.80;99.90;;;;;;5044357;28;20197;-73
2021/10/19 10:24:05;;;;;;;0.70;0.70;;;3.80;99.90;;;;;;5043534;28;20216;-73
2021/10/19 10:26:34;;;;;;;0.70;0.70;;;3.80;99.90;;;;;;5045665;28;20236;-72
2021/10/19 10:29:11;;;;;;;0.73;0.73;;;3.90;99.90;;;;;;5044919;28;20242;-74
2021/10/19 10:31:51;;;;;;;0.50;0.50;;;4.00;99.90;;;;;;5035743;28;20212;-73
2021/10/19 10:34:28;;;;;;;0.70;0.70;;;3.90;99.90;;;;;;5053752;28;20203;-72
2021/10/19 10:36:54;;;;;;;0.60;0.60;;;3.90;99.90;;;;;;5053543;28;20205;-73
2021/10/19 10:39:20;;;;;;;1.23;1.13;;;4.00;99.90;;;;;;5033899;28;20204;-73
2021/10/19 10:41:47;;;;;;;0.70;0.70;;;4.00;99.90;;;;;;5053469;28;20205;-73
2021/10/19 10:44:22;;;;;;;0.60;0.60;;;4.00;99.90;;;;;;5051398;28;20232;-73
2021/10/19 10:46:48;;;;;;;0.68;0.68;;;4.00;99.90;;;;;;5026802;28;20212;-73
2021/10/19 10:49:14;;;;;;;0.70;0.70;;;4.10;99.90;;;;;;5042368;28;20707;-74
2021/10/19 10:51:42;;;;;;;0.50;0.50;;;4.20;99.90;;;;;;5050853;28;20209;-75
2021/10/19 10:54:15;;;;;;;0.60;0.60;;;4.20;99.90;;;;;;5035415;28;20206;-77
2021/10/19 10:56:49;;;;;;;0.65;0.65;;;4.20;99.90;;;;;;5051869;28;20189;-76
2021/10/19 10:59:24;;;;;;;0.60;0.60;;;4.20;99.90;;;;;;5053276;28;20546;-75
2021/10/19 11:01:50;;;;;;;0.57;0.57;;;4.20;99.90;;;;;;5034285;28;20197;-75
2021/10/19 11:04:16;;;;;;;0.50;0.50;;;4.30;99.90;;;;;;5052798;28;20248;-76
2021/10/19 11:06:41;;;;;;;0.50;0.50;;;4.30;99.90;;;;;;5050625;28;20577;-75
2021/10/19 11:09:13;;;;;;;0.70;0.70;;;4.30;99.90;;;;;;5033720;28;20241;-75
2021/10/19 11:11:41;;;;;;;0.60;0.60;;;4.30;99.90;;;;;;5050416;28;20212;-75
2021/10/19 11:14:09;;;;;;;0.57;0.57;;;4.30;99.90;;;;;;5033830;28;20227;-75
2021/10/19 11:16:45;;;;;;;0.70;0.70;;;4.40;99.90;;;;;;5016438;28;20194;-76
2021/10/19 11:19:27;;;;;;;0.60;0.60;;;4.30;99.90;;;;;;5034165;28;20202;-75
2021/10/19 11:21:58;;;;;;;0.57;0.57;;;4.40;99.90;;;;;;5035345;28;20205;-74
2021/10/19 11:24:27;;;;;;;0.63;0.63;;;4.40;99.90;;;;;;5036365;28;20262;-73
2021/10/19 11:26:53;;;;;;;1.42;1.17;;;4.40;99.90;;;;;;5051411;28;20209;-74
2021/10/19 11:29:19;;;;;;;0.70;0.70;;;4.40;99.90;;;;;;5052045;28;20673;-73
2021/10/19 11:31:46;;;;;;;0.60;0.60;;;4.40;99.90;;;;;;5052469;28;20648;-74
2021/10/19 11:34:12;;;;;;;0.60;0.60;;;4.40;99.90;;;;;;5051806;28;20193;-73
2021/10/19 11:36:38;;;;;;;0.60;0.60;;;4.30;99.90;;;;;;5052587;28;20339;-73
2021/10/19 11:39:12;;;;;;;0.57;0.57;;;4.40;99.90;;;;;;5032132;28;20642;-72
2021/10/19 11:41:39;;;;;;;0.70;0.70;;;4.40;99.90;;;;;;5034350;28;20215;-73
2021/10/19 11:44:06;;;;;;;0.52;0.52;;;4.40;99.90;;;;;;5035647;28;20206;-75
2021/10/19 11:46:35;;;;;;;0.60;0.60;;;4.30;99.90;;;;;;5034058;28;20201;-73
2021/10/19 11:49:10;;;;;;;0.60;0.60;;;4.30;99.90;;;;;;5037136;28;20292;-73
2021/10/19 11:51:37;;;;;;;0.85;0.85;;;4.40;99.90;;;;;;5047307;28;20205;-73
2021/10/19 11:54:04;;;;;;;0.63;0.63;;;4.40;99.90;;;;;;5032967;28;20201;-74
2021/10/19 11:56:30;;;;;;;0.70;0.70;;;4.40;99.90;;;;;;5032839;28;20201;-73
2021/10/19 11:59:02;;;;;;;0.60;0.60;;;4.40;99.90;;;;;;5052151;28;20205;-73
2021/10/19 12:01:35;;;;;;;0.60;0.60;;;4.40;99.90;;;;;;5051615;28;20206;-74
2021/10/19 12:04:04;;;;;;;0.77;0.77;;;4.40;99.90;;;;;;5051686;28;20204;-74
2021/10/19 12:06:32;;;;;;;0.55;0.55;;;4.40;99.90;;;;;;5021795;28;20203;-72
2021/10/19 12:09:20;;;;;;;0.68;0.68;;;4.50;99.90;;;;;;5044375;28;20213;-73
2021/10/19 12:11:54;;;;;;;0.52;0.52;;;4.50;99.90;;;;;;5050783;28;20615;-73
2021/10/19 12:14:39;;;;;;;0.50;0.50;;;4.60;99.90;;;;;;5050326;28;20533;-74
2021/10/19 12:17:06;;;;;;;0.60;0.60;;;4.60;99.90;;;;;;5050761;28;20215;-73
2021/10/19 12:19:33;;;;;;;0.80;0.80;;;4.60;99.90;;;;;;5050343;28;20205;-74
2021/10/19 12:22:03;;;;;;;0.52;0.52;;;4.60;99.90;;;;;;5039205;28;20212;-73
2021/10/19 12:24:29;;;;;;;0.60;0.60;;;4.60;99.90;;;;;;5033550;28;20574;-74
2021/10/19 12:27:04;;;;;;;0.57;0.57;;;4.60;99.90;;;;;;5051932;28;20225;-73
2021/10/19 12:29:32;;;;;;;0.73;0.73;;;4.70;99.90;;;;;;5039201;28;20573;-74
2021/10/19 12:31:58;;;;;;;0.70;0.70;;;4.70;99.90;;;;;;5045393;28;20644;-74
2021/10/19 12:34:26;;;;;;;0.60;0.60;;;4.70;99.90;;;;;;5051303;28;20229;-72
2021/10/19 12:36:51;;;;;;;0.68;0.68;;;4.70;99.90;;;;;;5022137;28;20213;-73
2021/10/19 12:39:19;;;;;;;0.60;0.60;;;4.70;99.90;;;;;;5042217;28;20201;-72
2021/10/19 12:41:45;;;;;;;0.80;0.80;;;4.70;99.90;;;;;;5050463;28;20206;-72
2021/10/19 12:44:16;;;;;;;0.60;0.60;;;4.80;99.90;;;;;;5050437;28;20198;-72
2021/10/19 12:46:43;;;;;;;0.70;0.70;;;4.80;99.90;;;;;;5045417;28;20218;-74
2021/10/19 12:49:10;;;;;;;0.65;0.65;;;4.80;99.90;;;;;;5022173;28;20213;-74
2021/10/19 12:51:36;;;;;;;1.20;1.10;;;4.80;99.90;;;;;;5034850;28;20279;-73
2021/10/19 12:54:02;;;;;;;0.60;0.60;;;4.80;99.90;;;;;;5048988;28;20239;-74
2021/10/19 12:56:31;;;;;;;0.60;0.60;;;4.80;99.90;;;;;;5050109;28;20203;-74